createdAt,value
2022-08-22T00:01:54.464Z,100.00
2022-08-22T00:02:48.496Z,100.00
2022-08-22T00:02:53.533Z,100.00
2022-08-22T00:04:34.313Z,100.00
2022-08-22T00:07:07.522Z,100.00
2022-08-22T00:09:48.378Z,100.00
2022-08-22T00:12:21.962Z,100.00
2022-08-22T00:14:58.408Z,100.00
2022-08-22T00:17:35.234Z,100.00
2022-08-22T00:20:11.951Z,100.00
2022-08-22T00:22:46.327Z,100.00
2022-08-22T00:25:37.241Z,100.00
2022-08-22T00:28:10.368Z,100.00
2022-08-22T00:30:53.508Z,100.00
2022-08-22T00:33:27.646Z,100.00
2022-08-22T00:36:07.656Z,100.00
2022-08-22T00:38:41.408Z,100.00
2022-08-22T00:41:24.536Z,100.00
2022-08-22T00:44:13.766Z,100.00
2022-08-22T00:47:10.770Z,100.00
2022-08-22T00:50:01.119Z,100.00
2022-08-22T00:53:10.668Z,100.00
2022-08-22T00:55:53.565Z,100.00
2022-08-22T00:58:45.467Z,100.00
2022-08-22T01:01:16.987Z,100.00
2022-08-22T01:03:58.452Z,100.00
2022-08-22T01:06:32.628Z,100.00
2022-08-22T01:09:17.470Z,100.00
2022-08-22T01:12:15.910Z,100.00
2022-08-22T01:14:49.155Z,100.00
2022-08-22T01:17:41.107Z,100.00
2022-08-22T01:20:42.140Z,100.00
2022-08-22T01:23:46.686Z,100.00
2022-08-22T01:26:56.037Z,100.00
2022-08-22T01:29:56.724Z,100.00
2022-08-22T01:32:57.042Z,100.00
2022-08-22T01:35:51.947Z,100.00
2022-08-22T01:38:49.354Z,100.00
2022-08-22T01:41:41.789Z,100.00
2022-08-22T01:44:23.318Z,100.00
2022-08-22T01:46:58.645Z,100.00
2022-08-22T01:49:36.605Z,100.00
2022-08-22T01:52:11.586Z,100.00
2022-08-22T01:54:49.146Z,100.00
2022-08-22T01:57:18.605Z,100.00
2022-08-22T01:59:49.900Z,100.00
2022-08-22T02:02:40.975Z,100.00
2022-08-22T02:05:19.500Z,100.00
2022-08-22T02:07:57.613Z,100.00
2022-08-22T02:10:42.041Z,100.00
2022-08-22T02:13:29.811Z,100.00
2022-08-22T02:16:09.036Z,100.00
2022-08-22T02:18:50.460Z,100.00
2022-08-22T02:21:26.058Z,100.00
2022-08-22T02:24:03.051Z,100.00
2022-08-22T02:26:44.261Z,100.00
2022-08-22T02:29:16.448Z,100.00
2022-08-22T02:31:48.856Z,100.00
2022-08-22T02:34:38.757Z,100.00
2022-08-22T02:37:14.132Z,100.00
2022-08-22T02:39:50.721Z,100.00
2022-08-22T02:42:26.714Z,100.00
2022-08-22T02:45:06.042Z,100.00
2022-08-22T02:47:39.929Z,100.00
2022-08-22T02:50:17.571Z,100.00
2022-08-22T02:52:57.569Z,100.00
2022-08-22T02:55:46.327Z,100.00
2022-08-22T02:58:23.471Z,100.00
2022-08-22T03:01:12.521Z,100.00
2022-08-22T03:03:43.572Z,100.00
2022-08-22T03:06:30.949Z,100.00
2022-08-22T03:09:07.439Z,100.00
2022-08-22T03:11:40.849Z,100.00
2022-08-22T03:14:16.007Z,100.00
2022-08-22T03:16:53.488Z,100.00
2022-08-22T03:19:30.078Z,100.00
2022-08-22T03:22:03.228Z,100.00
2022-08-22T03:24:39.252Z,100.00
2022-08-22T03:27:23.235Z,100.00
2022-08-22T03:30:06.414Z,100.00
2022-08-22T03:32:50.377Z,100.00
2022-08-22T03:35:31.519Z,100.00
2022-08-22T03:38:13.326Z,100.00
2022-08-22T03:40:55.884Z,100.00
2022-08-22T03:43:59.083Z,100.00
2022-08-22T03:46:45.679Z,100.00
2022-08-22T03:49:55.655Z,100.00
2022-08-22T03:53:18.544Z,100.00
2022-08-22T03:56:20.105Z,100.00
2022-08-22T03:59:16.733Z,100.00
2022-08-22T04:02:33.414Z,100.00
2022-08-22T04:05:14.478Z,100.00
2022-08-22T04:08:16.118Z,100.00
2022-08-22T04:11:02.557Z,100.00
2022-08-22T04:14:25.489Z,100.00
2022-08-22T04:17:36.696Z,100.00
2022-08-22T04:20:19.873Z,100.00
2022-08-22T04:23:29.213Z,100.00
2022-08-22T04:26:01.911Z,100.00
2022-08-22T04:28:43.457Z,100.00
2022-08-22T04:31:14.083Z,100.00
2022-08-22T04:33:47.826Z,100.00
2022-08-22T04:36:23.707Z,100.00
2022-08-22T04:38:58.122Z,100.00
2022-08-22T04:41:35.802Z,100.00
2022-08-22T04:44:08.205Z,100.00
2022-08-22T04:46:43.673Z,100.00
2022-08-22T04:49:17.056Z,100.00
2022-08-22T04:51:50.801Z,100.00
2022-08-22T04:54:38.551Z,100.00
2022-08-22T04:57:16.634Z,100.00
2022-08-22T04:59:45.600Z,100.00
2022-08-22T05:02:22.802Z,100.00
2022-08-22T05:04:57.370Z,100.00
2022-08-22T05:07:35.909Z,100.00
2022-08-22T05:10:12.395Z,100.00
2022-08-22T05:12:44.927Z,100.00
2022-08-22T05:15:16.189Z,100.00
2022-08-22T05:17:56.104Z,100.00
2022-08-22T05:20:28.309Z,100.00
2022-08-22T05:23:00.345Z,100.00
2022-08-22T05:25:33.833Z,100.00
2022-08-22T05:28:10.368Z,100.00
2022-08-22T05:30:39.960Z,97.63
2022-08-22T05:33:18.113Z,99.52
2022-08-22T05:35:54.555Z,99.51
2022-08-22T05:38:30.709Z,97.45
2022-08-22T05:41:05.549Z,96.98
2022-08-22T05:43:38.495Z,99.06
2022-08-22T05:46:09.986Z,94.37
2022-08-22T05:48:44.143Z,93.27
2022-08-22T05:51:19.352Z,94.41
2022-08-22T05:53:52.212Z,93.80
2022-08-22T05:56:32.076Z,87.62
2022-08-22T05:59:08.525Z,88.03
2022-08-22T06:01:44.423Z,90.16
2022-08-22T06:04:26.725Z,87.22
2022-08-22T06:06:58.184Z,85.57
2022-08-22T06:09:34.838Z,84.00
2022-08-22T06:12:12.603Z,86.70
2022-08-22T06:14:52.723Z,88.16
2022-08-22T06:17:26.094Z,85.91
2022-08-22T06:19:55.429Z,86.13
2022-08-22T06:22:27.012Z,84.85
2022-08-22T06:24:59.589Z,84.08
2022-08-22T06:27:31.093Z,84.14
2022-08-22T06:30:03.049Z,85.38
2022-08-22T06:32:59.082Z,85.68
2022-08-22T06:35:31.536Z,86.87
2022-08-22T06:38:01.124Z,80.35
2022-08-22T06:40:30.015Z,80.92
2022-08-22T06:42:58.761Z,79.32
2022-08-22T06:45:30.950Z,80.38
2022-08-22T06:48:15.029Z,82.16
2022-08-22T06:50:48.032Z,79.80
2022-08-22T06:53:18.514Z,81.76
2022-08-22T06:55:49.454Z,79.98
2022-08-22T06:58:20.983Z,79.27
2022-08-22T07:01:11.287Z,78.18
2022-08-22T07:03:44.830Z,79.84
2022-08-22T07:06:18.436Z,77.64
2022-08-22T07:08:52.563Z,78.46
2022-08-22T07:11:26.003Z,78.25
2022-08-22T07:13:58.333Z,75.43
2022-08-22T07:16:31.919Z,74.48
2022-08-22T07:18:59.947Z,73.84
2022-08-22T07:21:43.111Z,74.63
2022-08-22T07:24:16.986Z,75.44
2022-08-22T07:27:06.917Z,75.28
2022-08-22T07:29:45.783Z,73.27
2022-08-22T07:32:19.223Z,73.03
2022-08-22T07:35:06.723Z,71.72
2022-08-22T07:37:48.343Z,73.14
2022-08-22T07:40:23.795Z,72.42
2022-08-22T07:42:58.888Z,73.11
2022-08-22T07:45:35.064Z,73.06
2022-08-22T07:48:25.520Z,74.37
2022-08-22T07:51:07.519Z,75.20
2022-08-22T07:53:42.157Z,71.94
2022-08-22T07:56:15.018Z,74.05
2022-08-22T07:58:45.786Z,72.76
2022-08-22T08:01:18.035Z,67.71
2022-08-22T08:03:53.461Z,69.28
2022-08-22T08:06:22.646Z,68.13
2022-08-22T08:08:53.212Z,68.40
2022-08-22T08:11:23.487Z,70.36
2022-08-22T08:13:54.552Z,68.79
2022-08-22T08:16:23.972Z,70.21
2022-08-22T08:18:55.768Z,68.34
2022-08-22T08:21:29.577Z,67.43
2022-08-22T08:24:01.389Z,64.59
2022-08-22T08:26:32.992Z,67.08
2022-08-22T08:29:02.852Z,64.52
2022-08-22T08:31:33.059Z,65.27
2022-08-22T08:34:04.746Z,64.08
2022-08-22T08:36:42.285Z,62.97
2022-08-22T08:39:19.368Z,62.15
2022-08-22T08:42:07.249Z,62.43
2022-08-22T08:45:17.114Z,63.36
2022-08-22T08:48:16.304Z,62.08
2022-08-22T08:50:58.183Z,61.01
2022-08-22T08:53:51.090Z,62.65
2022-08-22T08:56:29.521Z,63.55
2022-08-22T08:59:10.292Z,61.93
2022-08-22T09:02:06.165Z,62.68
2022-08-22T09:04:57.294Z,62.02
2022-08-22T09:07:52.706Z,62.55
2022-08-22T09:10:41.000Z,60.53
2022-08-22T09:13:43.795Z,62.11
2022-08-22T09:16:30.296Z,58.24
2022-08-22T09:19:31.459Z,59.48
2022-08-22T09:22:50.153Z,60.14
2022-08-22T09:25:29.655Z,60.22
2022-08-22T09:28:16.312Z,58.51
2022-08-22T09:31:02.840Z,60.18
2022-08-22T09:33:53.103Z,60.05
2022-08-22T09:36:25.234Z,59.45
2022-08-22T09:38:56.882Z,61.31
2022-08-22T09:41:35.608Z,60.73
2022-08-22T09:44:14.474Z,60.62
2022-08-22T09:46:55.203Z,60.30
2022-08-22T09:49:32.763Z,60.30
2022-08-22T09:52:15.595Z,62.11
2022-08-22T09:55:02.397Z,61.42
2022-08-22T09:57:38.645Z,59.75
2022-08-22T10:00:22.824Z,62.18
2022-08-22T10:03:06.332Z,61.01
2022-08-22T10:19:15.103Z,60.43
2022-08-22T10:22:12.988Z,59.32
2022-08-22T10:24:50.673Z,58.33
2022-08-22T10:27:28.968Z,59.67
2022-08-22T10:30:06.955Z,60.06
2022-08-22T10:32:42.867Z,59.67
2022-08-22T10:38:13.506Z,58.47
2022-08-22T10:40:47.872Z,58.75
2022-08-22T10:43:21.128Z,60.53
2022-08-22T10:46:03.777Z,60.21
2022-08-22T10:48:46.857Z,61.16
2022-08-22T10:51:49.437Z,59.18
2022-08-22T10:54:42.948Z,59.41
2022-08-22T10:57:43.973Z,58.15
2022-08-22T11:00:16.930Z,60.25
2022-08-22T11:02:55.840Z,57.19
2022-08-22T11:05:32.927Z,58.99
2022-08-22T11:08:27.111Z,59.14
2022-08-22T11:11:08.750Z,59.93
2022-08-22T11:13:43.656Z,59.33
2022-08-22T11:16:36.812Z,57.87
2022-08-22T11:19:22.633Z,58.43
2022-08-22T11:22:01.557Z,57.23
2022-08-22T11:25:06.712Z,57.80
2022-08-22T11:27:54.159Z,57.77
2022-08-22T11:30:31.803Z,59.17
2022-08-22T11:33:32.512Z,61.10
2022-08-22T11:36:31.088Z,57.91
2022-08-22T11:39:18.554Z,58.68
2022-08-22T11:41:56.611Z,57.21
2022-08-22T11:44:32.315Z,60.15
2022-08-22T11:47:08.918Z,59.58
2022-08-22T11:49:50.957Z,61.51
2022-08-22T11:52:34.178Z,62.20
2022-08-22T11:55:32.149Z,58.86
2022-08-22T11:58:16.900Z,57.65
2022-08-22T12:00:54.526Z,57.68
2022-08-22T12:03:55.630Z,60.06
2022-08-22T12:06:39.341Z,58.63
2022-08-22T12:09:20.780Z,58.08
2022-08-22T12:12:01.773Z,56.35
2022-08-22T12:14:42.889Z,55.77
2022-08-22T12:17:55.156Z,55.51
2022-08-22T12:20:21.202Z,53.64
2022-08-22T12:23:09.801Z,55.10
2022-08-22T12:25:55.635Z,54.48
2022-08-22T12:28:32.346Z,56.80
2022-08-22T12:31:09.929Z,56.85
2022-08-22T12:34:03.010Z,55.93
2022-08-22T12:36:54.275Z,55.76
2022-08-22T12:39:41.125Z,54.02
2022-08-22T12:42:36.801Z,53.47
2022-08-22T12:45:20.775Z,55.26
2022-08-22T12:48:00.835Z,55.46
2022-08-22T12:50:42.219Z,55.06
2022-08-22T12:53:26.875Z,55.22
2022-08-22T12:56:06.079Z,56.60
2022-08-22T12:58:57.747Z,54.51
2022-08-22T13:01:33.745Z,54.41
2022-08-22T13:04:05.523Z,56.08
2022-08-22T13:07:01.270Z,55.86
2022-08-22T13:09:34.139Z,57.13
2022-08-22T13:12:05.992Z,55.14
2022-08-22T13:14:35.046Z,54.16
2022-08-22T13:17:23.921Z,52.88
2022-08-22T13:20:01.403Z,53.98
2022-08-22T13:22:34.242Z,53.33
2022-08-22T13:25:06.231Z,54.16
2022-08-22T13:27:50.670Z,53.14
2022-08-22T13:30:22.743Z,53.32
2022-08-22T13:32:53.391Z,51.81
2022-08-22T13:35:24.625Z,53.84
2022-08-22T13:38:03.296Z,52.06
2022-08-22T13:40:33.256Z,52.31
2022-08-22T13:43:05.503Z,53.51
2022-08-22T13:45:36.312Z,52.08
2022-08-22T13:48:13.270Z,51.83
2022-08-22T13:51:09.946Z,53.08
2022-08-22T13:53:49.904Z,51.94
2022-08-22T13:56:34.907Z,52.24
2022-08-22T13:59:07.361Z,53.12
2022-08-22T14:01:48.286Z,52.69
2022-08-22T14:04:32.118Z,52.95
2022-08-22T14:07:24.044Z,52.73
2022-08-22T14:09:58.964Z,53.99
2022-08-22T14:12:50.891Z,53.66
2022-08-22T14:15:23.515Z,54.04
2022-08-22T14:17:56.274Z,54.39
2022-08-22T14:20:32.136Z,56.63
2022-08-22T14:23:05.163Z,55.25
2022-08-22T14:25:38.911Z,53.98
2022-08-22T14:28:11.014Z,54.22
2022-08-22T14:30:54.668Z,53.87
2022-08-22T14:33:32.295Z,54.75
2022-08-22T14:36:10.982Z,55.17
2022-08-22T14:38:46.187Z,54.45
2022-08-22T14:41:27.560Z,56.81
2022-08-22T14:43:57.121Z,55.80
2022-08-22T14:46:30.744Z,55.76
2022-08-22T14:49:24.968Z,56.47
2022-08-22T14:52:00.086Z,55.41
2022-08-22T14:54:29.607Z,55.54
2022-08-22T14:57:02.324Z,55.25
2022-08-22T14:59:37.264Z,56.68
2022-08-22T15:02:09.998Z,55.52
2022-08-22T15:04:41.007Z,55.09
2022-08-22T15:07:12.577Z,55.56
2022-08-22T15:09:41.710Z,55.46
2022-08-22T15:12:23.679Z,56.63
2022-08-22T15:14:56.078Z,56.09
2022-08-22T15:17:40.808Z,56.06
2022-08-22T15:20:27.725Z,57.06
2022-08-22T15:22:59.088Z,56.79
2022-08-22T15:25:30.552Z,56.68
2022-08-22T15:28:05.584Z,56.80
2022-08-22T15:30:37.708Z,56.60
2022-08-22T15:33:22.851Z,56.32
2022-08-22T15:35:52.446Z,57.95
2022-08-22T15:38:31.444Z,59.18
2022-08-22T15:41:37.258Z,58.18
2022-08-22T15:44:14.801Z,57.76
2022-08-22T15:47:24.216Z,58.91
2022-08-22T15:49:59.590Z,57.70
2022-08-22T15:52:30.736Z,58.79
2022-08-22T15:55:19.113Z,60.23
2022-08-22T15:57:59.956Z,60.97
2022-08-22T16:00:43.736Z,62.76
2022-08-22T16:03:24.464Z,63.63
2022-08-22T16:05:56.046Z,63.91
2022-08-22T16:08:28.440Z,62.82
2022-08-22T16:11:25.477Z,63.19
2022-08-22T16:14:21.812Z,63.17
2022-08-22T16:17:03.656Z,62.67
2022-08-22T16:19:32.450Z,62.36
2022-08-22T16:22:15.293Z,64.20
2022-08-22T16:25:06.791Z,63.43
2022-08-22T16:27:55.465Z,64.64
2022-08-22T16:30:38.301Z,65.70
2022-08-22T16:33:10.344Z,71.57
2022-08-22T16:36:22.766Z,69.74
2022-08-22T16:38:53.006Z,69.99
2022-08-22T16:41:40.356Z,69.97
2022-08-22T16:44:31.517Z,69.42
2022-08-22T16:47:07.781Z,69.92
2022-08-22T16:49:54.469Z,70.30
2022-08-22T16:52:55.431Z,71.80
2022-08-22T16:55:46.561Z,72.76
2022-08-22T16:58:40.222Z,73.60
2022-08-22T17:01:22.817Z,74.75
2022-08-22T17:04:00.118Z,75.24
2022-08-22T17:06:51.941Z,75.73
2022-08-22T17:09:48.467Z,76.92
2022-08-22T17:12:30.417Z,78.88
2022-08-22T17:15:14.171Z,79.04
2022-08-22T17:17:54.153Z,79.61
2022-08-22T17:20:29.505Z,80.42
2022-08-22T17:23:12.752Z,81.18
2022-08-22T17:25:55.231Z,82.38
2022-08-22T17:28:34.792Z,83.47
2022-08-22T17:31:10.037Z,83.99
2022-08-22T17:34:01.744Z,85.21
2022-08-22T17:36:42.073Z,86.32
2022-08-22T17:39:24.607Z,86.18
2022-08-22T17:42:00.449Z,86.50
2022-08-22T17:44:38.943Z,87.01
2022-08-22T17:47:12.872Z,87.17
2022-08-22T17:49:50.457Z,88.12
2022-08-22T17:52:25.538Z,89.29
2022-08-22T17:54:59.531Z,89.35
2022-08-22T17:57:31.153Z,89.86
2022-08-22T18:00:02.815Z,90.61
2022-08-22T18:02:36.084Z,88.89
2022-08-22T18:05:12.889Z,87.26
2022-08-22T18:08:00.759Z,85.36
2022-08-22T18:10:39.675Z,84.31
2022-08-22T18:13:13.328Z,85.36
2022-08-22T18:15:47.363Z,85.85
2022-08-22T18:18:30.338Z,86.02
2022-08-22T18:21:03.448Z,87.06
2022-08-22T18:23:40.178Z,87.63
2022-08-22T18:26:30.911Z,88.00
2022-08-22T18:29:05.695Z,89.13
2022-08-22T18:31:48.416Z,89.03
2022-08-22T18:34:30.096Z,90.57
2022-08-22T18:37:03.801Z,89.65
2022-08-22T18:39:40.792Z,88.80
2022-08-22T18:42:23.218Z,89.47
2022-08-22T18:44:50.915Z,89.18
2022-08-22T18:47:23.847Z,88.66
2022-08-22T18:49:54.755Z,88.42
2022-08-22T18:52:35.061Z,88.44
2022-08-22T18:55:26.869Z,89.37
2022-08-22T18:58:23.536Z,92.15
2022-08-22T19:01:03.460Z,91.81
2022-08-22T19:03:52.754Z,94.07
2022-08-22T19:06:44.364Z,93.33
2022-08-22T19:09:45.448Z,92.57
2022-08-22T19:12:31.612Z,93.70
2022-08-22T19:15:18.461Z,95.12
2022-08-22T19:18:03.571Z,95.87
2022-08-22T19:20:33.624Z,96.13
2022-08-22T19:23:34.163Z,99.11
2022-08-22T19:26:41.412Z,97.73
2022-08-22T19:29:42.009Z,96.63
2022-08-22T19:32:32.202Z,99.98
2022-08-22T19:35:18.498Z,100.00
2022-08-22T19:37:55.270Z,98.59
2022-08-22T19:40:48.969Z,100.00
2022-08-22T19:43:37.240Z,100.00
2022-08-22T19:46:08.535Z,100.00
2022-08-22T19:48:49.998Z,100.00
2022-08-22T19:51:27.693Z,100.00
2022-08-22T19:54:17.181Z,100.00
2022-08-22T19:57:01.042Z,100.00
2022-08-22T19:59:40.742Z,100.00
2022-08-22T20:02:30.560Z,98.32
2022-08-22T20:05:17.239Z,99.50
2022-08-22T20:07:58.250Z,100.00
2022-08-22T20:10:35.102Z,100.00
2022-08-22T20:13:07.712Z,100.00
2022-08-22T20:16:03.999Z,100.00
2022-08-22T20:19:13.482Z,100.00
2022-08-22T20:21:50.465Z,100.00
2022-08-22T20:24:23.091Z,100.00
2022-08-22T20:27:12.677Z,100.00
2022-08-22T20:29:44.432Z,100.00
2022-08-22T20:32:14.975Z,100.00
2022-08-22T20:34:43.403Z,100.00
2022-08-22T20:37:32.324Z,100.00
2022-08-22T20:40:33.504Z,100.00
2022-08-22T20:43:13.266Z,100.00
2022-08-22T20:45:57.218Z,100.00
2022-08-22T20:48:34.402Z,100.00
2022-08-22T20:51:06.925Z,100.00
2022-08-22T20:53:36.851Z,100.00
2022-08-22T20:56:05.846Z,100.00
2022-08-22T20:58:37.711Z,100.00
2022-08-22T21:01:09.634Z,100.00
2022-08-22T21:03:42.456Z,100.00
2022-08-22T21:06:13.235Z,100.00
2022-08-22T21:08:43.814Z,100.00
2022-08-22T21:11:20.189Z,100.00
2022-08-22T21:13:48.192Z,100.00
2022-08-22T21:16:18.772Z,100.00
2022-08-22T21:18:48.172Z,100.00
2022-08-22T21:21:20.402Z,100.00
2022-08-22T21:23:51.883Z,100.00
2022-08-22T21:26:24.447Z,100.00
2022-08-22T21:28:58.818Z,100.00
2022-08-22T21:31:30.295Z,100.00
2022-08-22T21:33:58.534Z,100.00
2022-08-22T21:36:29.745Z,100.00
2022-08-22T21:39:01.368Z,100.00
2022-08-22T21:41:37.087Z,100.00
2022-08-22T21:44:19.468Z,100.00
2022-08-22T21:46:47.243Z,100.00
2022-08-22T21:49:23.425Z,100.00
2022-08-22T21:51:51.905Z,100.00
2022-08-22T21:54:28.980Z,100.00
2022-08-22T21:57:00.301Z,100.00
2022-08-22T21:59:52.089Z,100.00
2022-08-22T22:02:36.433Z,100.00
2022-08-22T22:05:09.346Z,100.00
2022-08-22T22:07:38.944Z,100.00
2022-08-22T22:10:11.680Z,100.00
2022-08-22T22:12:40.770Z,100.00
2022-08-22T22:15:12.838Z,100.00
2022-08-22T22:17:41.259Z,100.00
2022-08-22T22:20:10.451Z,100.00
2022-08-22T22:22:46.631Z,100.00
2022-08-22T22:25:40.536Z,100.00
2022-08-22T22:28:09.532Z,100.00
2022-08-22T22:30:37.696Z,100.00
2022-08-22T22:33:05.461Z,100.00
2022-08-22T22:35:34.103Z,100.00
2022-08-22T22:38:02.061Z,100.00
2022-08-22T22:40:31.679Z,100.00
2022-08-22T22:42:59.380Z,100.00
2022-08-22T22:45:27.004Z,100.00
2022-08-22T22:47:54.620Z,100.00
2022-08-22T22:50:22.495Z,100.00
2022-08-22T22:52:50.411Z,100.00
2022-08-22T22:55:24.374Z,100.00
2022-08-22T22:57:59.154Z,100.00
2022-08-22T23:00:29.168Z,100.00
2022-08-22T23:03:00.369Z,100.00
2022-08-22T23:05:28.988Z,100.00
2022-08-22T23:07:57.200Z,100.00
2022-08-22T23:10:25.541Z,100.00
2022-08-22T23:12:54.791Z,100.00
2022-08-22T23:15:22.664Z,100.00
2022-08-22T23:17:50.547Z,100.00
2022-08-22T23:20:18.613Z,100.00
2022-08-22T23:22:46.936Z,100.00
2022-08-22T23:25:15.361Z,100.00
2022-08-22T23:27:43.717Z,100.00
2022-08-22T23:30:13.576Z,100.00
2022-08-22T23:32:41.467Z,100.00
2022-08-22T23:35:09.845Z,100.00
2022-08-22T23:37:37.442Z,100.00
2022-08-22T23:40:06.773Z,100.00
2022-08-22T23:42:35.094Z,100.00
2022-08-22T23:45:02.843Z,100.00
2022-08-22T23:47:32.266Z,100.00
2022-08-22T23:50:06.123Z,100.00
2022-08-22T23:52:34.351Z,100.00
2022-08-22T23:55:02.248Z,100.00
2022-08-22T23:57:30.073Z,100.00
2022-08-22T23:59:58.499Z,100.00
